Time;durP1;ratioP1;P1;durP2;ratioP2;P2;SDS_P1;SDS_P2;PMS_P1;PMS_P2;Temp;Humidity;BMP_temperature;BMP_pressure;BME280_temperature;BME280_humidity;BME280_pressure;Samples;Min_cycle;Max_cycle;Signal;HPM_P1;HPM_P2
2021/03/10 00:02:06;;;;;;;;;;;2.70;99.90;;;;;;5052845;28;19912;-64
2021/03/10 00:04:31;;;;;;;;;;;2.90;99.90;;;;;;5057978;28;19919;-64
2021/03/10 00:06:57;;;;;;;;;;;3.00;99.90;;;;;;5040786;28;19913;-64
2021/03/10 00:09:22;;;;;;;;;;;2.70;99.90;;;;;;5056769;28;20575;-64
2021/03/10 00:11:48;;;;;;;;;;;2.80;99.90;;;;;;5043361;28;19920;-64
2021/03/10 00:14:13;;;;;;;;;;;2.70;99.90;;;;;;5041951;28;20189;-64
2021/03/10 00:16:39;;;;;;;;;;;2.70;99.90;;;;;;5059415;28;19966;-64
2021/03/10 00:19:04;;;;;;;;;;;2.70;99.90;;;;;;5040888;28;20491;-64
2021/03/10 00:21:30;;;;;;;;;;;2.60;99.90;;;;;;5058375;28;19956;-64
2021/03/10 00:23:55;;;;;;;;;;;2.50;99.90;;;;;;5042353;28;20250;-64
2021/03/10 00:26:21;;;;;;;;;;;2.70;99.90;;;;;;5048515;28;19962;-64
2021/03/10 00:28:47;;;;;;;;;;;2.70;99.90;;;;;;5061911;28;20023;-64
2021/03/10 00:31:15;;;;;;;;;;;2.60;99.90;;;;;;5045938;28;20443;-64
2021/03/10 00:33:40;;;;;;;;;;;2.70;99.90;;;;;;5061340;28;20019;-64
2021/03/10 00:36:06;;;;;;;;;;;2.60;99.90;;;;;;5045883;28;20059;-64
2021/03/10 00:38:31;;;;;;;;;;;2.40;99.90;;;;;;5057866;28;20387;-65
2021/03/10 00:40:57;;;;;;;;;;;2.60;99.90;;;;;;5048286;28;19977;-64
2021/03/10 00:43:22;;;;;;;;;;;2.50;99.90;;;;;;5061784;28;19913;-64
2021/03/10 00:45:48;;;;;;;;;;;2.30;99.90;;;;;;5062054;28;19912;-64
2021/03/10 00:48:13;;;;;;;;;;;2.20;99.90;;;;;;5047854;28;19929;-64
2021/03/10 00:50:39;;;;;;;;;;;2.60;99.90;;;;;;5060877;28;19936;-64
2021/03/10 00:53:05;;;;;;;;;;;2.40;99.90;;;;;;5061636;28;19995;-64
2021/03/10 00:55:30;;;;;;;;;;;2.50;99.90;;;;;;5041533;28;19917;-64
2021/03/10 00:57:56;;;;;;;;;;;2.40;99.90;;;;;;5045467;28;19958;-64
2021/03/10 01:00:21;;;;;;;;;;;2.50;99.90;;;;;;5045846;28;19916;-64
2021/03/10 01:02:47;;;;;;;;;;;2.30;99.90;;;;;;5045217;28;20364;-64
2021/03/10 01:05:12;;;;;;;;;;;2.50;99.90;;;;;;5063256;28;19916;-64
2021/03/10 01:07:38;;;;;;;;;;;2.40;99.90;;;;;;5046839;28;19932;-64
2021/03/10 01:10:05;;;;;;;;;;;2.60;99.90;;;;;;5059755;28;19923;-64
2021/03/10 01:12:31;;;;;;;;;;;2.30;99.90;;;;;;5061416;28;19919;-64
2021/03/10 01:14:56;;;;;;;;;;;2.50;99.90;;;;;;5045329;28;19917;-63
2021/03/10 01:17:22;;;;;;;;;;;2.50;99.90;;;;;;5061774;28;19913;-63
2021/03/10 01:19:47;;;;;;;;;;;2.60;99.90;;;;;;5046600;28;19913;-63
2021/03/10 01:22:13;;;;;;;;;;;2.40;99.90;;;;;;5057422;28;19913;-63
2021/03/10 01:24:38;;;;;;;;;;;2.50;99.90;;;;;;5046471;28;19912;-63
2021/03/10 01:27:04;;;;;;;;;;;2.40;99.90;;;;;;5057827;28;19921;-63
2021/03/10 01:29:29;;;;;;;;;;;2.40;99.90;;;;;;5063689;28;19912;-63
2021/03/10 01:31:55;;;;;;;;;;;2.70;99.90;;;;;;5058674;28;20438;-63
2021/03/10 01:34:20;;;;;;;;;;;2.40;99.90;;;;;;5044115;28;20007;-63
2021/03/10 01:36:46;;;;;;;;;;;2.50;99.90;;;;;;5043853;28;20522;-63
2021/03/10 01:39:11;;;;;;;;;;;2.30;99.90;;;;;;5047277;28;20007;-63
2021/03/10 01:41:37;;;;;;;;;;;2.70;99.90;;;;;;5061745;28;20597;-63
2021/03/10 01:44:02;;;;;;;;;;;2.40;99.90;;;;;;5046197;28;19923;-63
2021/03/10 01:46:33;;;;;;;;;;;2.30;99.90;;;;;;5043266;28;20492;-63
2021/03/10 01:48:59;;;;;;;;;;;2.50;99.90;;;;;;5064210;28;19913;-63
2021/03/10 01:51:24;;;;;;;;;;;2.00;99.90;;;;;;5055673;28;20395;-63
2021/03/10 01:53:50;;;;;;;;;;;2.50;99.90;;;;;;5059998;28;19974;-63
2021/03/10 01:56:16;;;;;;;;;;;2.10;99.90;;;;;;5047156;28;19915;-63
2021/03/10 01:58:44;;;;;;;;;;;2.50;99.90;;;;;;5044202;28;19916;-63
2021/03/10 02:01:10;;;;;;;;;;;2.50;99.90;;;;;;5046452;28;20011;-63
2021/03/10 02:03:35;;;;;;;;;;;2.30;99.90;;;;;;5048136;28;19995;-63
2021/03/10 02:06:01;;;;;;;;;;;2.30;99.90;;;;;;5061942;28;19966;-63
2021/03/10 02:08:29;;;;;;;;;;;2.10;99.90;;;;;;5050775;28;19915;-62
2021/03/10 02:11:01;;;;;;;;;;;2.10;99.90;;;;;;5055229;28;19913;-63
2021/03/10 02:13:35;;;;;;;;;;;2.30;99.90;;;;;;5067675;28;19908;-63
2021/03/10 02:16:29;;;;;;;;;;;2.20;99.90;;;;;;5049168;28;20306;-63
2021/03/10 02:18:59;;;;;;;;;;;2.20;99.90;;;;;;5047837;28;20311;-63
2021/03/10 02:21:29;;;;;;;;;;;2.40;99.90;;;;;;5068834;28;20264;-63
2021/03/10 02:24:06;;;;;;;;;;;2.50;99.90;;;;;;5050001;28;20024;-63
2021/03/10 02:26:33;;;;;;;;;;;2.20;99.90;;;;;;5059944;28;19988;-63
2021/03/10 02:29:07;;;;;;;;;;;2.40;99.90;;;;;;5052493;28;20554;-63
2021/03/10 02:31:46;;;;;;;;;;;2.20;99.90;;;;;;5044792;28;19991;-62
2021/03/10 02:34:12;;;;;;;;;;;2.30;99.90;;;;;;5043642;28;19908;-63
2021/03/10 02:36:39;;;;;;;;;;;2.50;99.90;;;;;;5047444;28;20256;-63
2021/03/10 02:39:05;;;;;;;;;;;2.40;99.90;;;;;;5059582;28;19921;-63
2021/03/10 02:41:32;;;;;;;;;;;2.40;99.90;;;;;;5052325;28;19966;-63
2021/03/10 02:43:58;;;;;;;;;;;2.50;99.90;;;;;;5047279;28;19919;-63
2021/03/10 02:46:25;;;;;;;;;;;2.30;99.90;;;;;;5061353;28;20397;-63
2021/03/10 02:48:51;;;;;;;;;;;2.50;99.90;;;;;;5065136;28;20548;-63
2021/03/10 02:51:17;;;;;;;;;;;2.40;99.90;;;;;;5054518;28;19956;-63
2021/03/10 02:53:43;;;;;;;;;;;2.60;99.90;;;;;;5047561;28;19912;-63
2021/03/10 02:56:09;;;;;;;;;;;2.60;99.90;;;;;;5045580;28;19920;-63
2021/03/10 02:58:34;;;;;;;;;;;2.50;99.90;;;;;;5064464;28;19920;-63
2021/03/10 03:01:00;;;;;;;;;;;2.50;99.90;;;;;;5050398;28;19916;-63
2021/03/10 03:03:25;;;;;;;;;;;2.60;99.90;;;;;;5060848;28;20280;-63
2021/03/10 03:05:51;;;;;;;;;;;2.60;99.90;;;;;;5070570;28;19996;-63
2021/03/10 03:08:16;;;;;;;;;;;2.70;99.90;;;;;;5061427;28;19920;-63
2021/03/10 03:10:42;;;;;;;;;;;2.40;99.90;;;;;;5063731;28;19913;-63
2021/03/10 03:13:09;;;;;;;;;;;2.40;99.90;;;;;;5055067;28;19959;-63
2021/03/10 03:15:35;;;;;;;;;;;2.70;99.90;;;;;;5060305;28;19913;-63
2021/03/10 03:18:01;;;;;;;;;;;2.40;99.90;;;;;;5053945;28;20249;-63
2021/03/10 03:20:27;;;;;;;;;;;2.60;99.90;;;;;;5046684;28;19988;-64
2021/03/10 03:22:56;;;;;;;;;;;2.70;99.90;;;;;;5065196;28;19999;-63
2021/03/10 03:25:26;;;;;;;;;;;2.60;99.90;;;;;;5069371;28;19909;-63
2021/03/10 03:27:55;;;;;;;;;;;2.70;99.90;;;;;;5058207;28;19934;-63
2021/03/10 03:30:22;;;;;;;;;;;2.90;99.90;;;;;;5070665;28;20003;-63
2021/03/10 03:32:47;;;;;;;;;;;2.50;99.90;;;;;;5048277;28;19999;-63
2021/03/10 03:35:16;;;;;;;;;;;2.70;99.90;;;;;;5046053;28;20397;-63
2021/03/10 03:37:46;;;;;;;;;;;2.40;99.90;;;;;;5068887;28;19916;-63
2021/03/10 03:40:12;;;;;;;;;;;2.50;99.90;;;;;;5063955;28;20348;-63
2021/03/10 03:42:38;;;;;;;;;;;2.60;99.90;;;;;;5066287;28;19919;-64
2021/03/10 03:45:04;;;;;;;;;;;2.50;99.90;;;;;;5051329;28;19918;-63
2021/03/10 03:47:30;;;;;;;;;;;2.40;99.90;;;;;;5060401;28;19913;-63
2021/03/10 03:49:55;;;;;;;;;;;2.70;99.90;;;;;;5051624;28;19939;-64
2021/03/10 03:52:21;;;;;;;;;;;2.70;99.90;;;;;;5049064;28;20296;-64
2021/03/10 03:54:46;;;;;;;;;;;2.70;99.90;;;;;;5063936;28;19917;-63
2021/03/10 03:57:12;;;;;;;;;;;2.70;99.90;;;;;;5051657;28;20432;-63
2021/03/10 03:59:37;;;;;;;;;;;2.90;99.90;;;;;;5059595;28;19916;-62
2021/03/10 04:02:03;;;;;;;;;;;2.80;99.90;;;;;;5059063;28;20284;-63
2021/03/10 04:04:28;;;;;;;;;;;2.50;99.90;;;;;;5050693;28;19915;-64
2021/03/10 04:06:54;;;;;;;;;;;2.80;99.90;;;;;;5051761;28;20469;-63
2021/03/10 04:09:19;;;;;;;;;;;3.00;99.90;;;;;;5053885;28;20533;-63
2021/03/10 04:11:45;;;;;;;;;;;2.80;99.90;;;;;;5061822;28;19916;-65
2021/03/10 04:14:11;;;;;;;;;;;2.90;99.90;;;;;;5067723;28;20543;-63
2021/03/10 04:16:37;;;;;;;;;;;2.50;99.90;;;;;;5062166;28;19918;-63
2021/03/10 04:19:03;;;;;;;;;;;2.60;99.90;;;;;;5065113;28;19919;-63
2021/03/10 04:21:28;;;;;;;;;;;2.50;99.90;;;;;;5051229;28;19919;-63
2021/03/10 04:23:54;;;;;;;;;;;2.70;99.90;;;;;;5057549;28;19913;-63
2021/03/10 04:26:19;;;;;;;;;;;2.50;99.90;;;;;;5053641;28;20371;-63
2021/03/10 04:28:45;;;;;;;;;;;2.50;99.90;;;;;;5061590;28;19909;-63
2021/03/10 04:31:10;;;;;;;;;;;2.50;99.90;;;;;;5049323;28;19909;-63
2021/03/10 04:33:36;;;;;;;;;;;2.70;99.90;;;;;;5067291;28;20419;-63
2021/03/10 04:36:01;;;;;;;;;;;3.00;99.90;;;;;;5058250;28;19908;-63
2021/03/10 04:38:27;;;;;;;;;;;2.40;99.90;;;;;;5060886;28;20396;-63
2021/03/10 04:40:53;;;;;;;;;;;3.10;99.90;;;;;;5047025;28;19920;-63
2021/03/10 04:43:18;;;;;;;;;;;2.60;99.90;;;;;;5044452;28;20388;-63
2021/03/10 04:45:44;;;;;;;;;;;2.80;99.90;;;;;;5053394;28;19986;-62
2021/03/10 04:48:09;;;;;;;;;;;2.70;99.90;;;;;;5046349;28;20284;-62
2021/03/10 04:50:35;;;;;;;;;;;2.70;99.90;;;;;;5069129;28;20030;-62
2021/03/10 04:53:00;;;;;;;;;;;2.60;99.90;;;;;;5049701;28;20295;-63
2021/03/10 04:55:26;;;;;;;;;;;2.40;99.90;;;;;;5066217;28;20521;-62
2021/03/10 04:57:51;;;;;;;;;;;2.70;99.90;;;;;;5048007;28;20698;-62
2021/03/10 05:00:17;;;;;;;;;;;2.60;99.90;;;;;;5060108;28;19964;-63
2021/03/10 05:02:42;;;;;;;;;;;2.60;99.90;;;;;;5048314;28;19970;-64
2021/03/10 05:05:09;;;;;;;;;;;2.80;99.90;;;;;;5046387;28;19912;-63
2021/03/10 05:07:34;;;;;;;;;;;2.50;99.90;;;;;;5059424;28;20066;-64
2021/03/10 05:10:00;;;;;;;;;;;2.70;99.90;;;;;;5050294;28;19969;-65
2021/03/10 05:12:30;;;;;;;;;;;3.30;99.90;;;;;;5058163;28;20273;-65
2021/03/10 05:14:59;;;;;;;;;;;2.70;99.90;;;;;;5068305;28;19917;-64
2021/03/10 05:17:25;;;;;;;;;;;2.70;99.90;;;;;;5047889;28;19991;-64
2021/03/10 05:19:54;;;;;;;;;;;2.70;99.90;;;;;;5061068;28;19974;-64
2021/03/10 05:22:20;;;;;;;;;;;2.80;99.90;;;;;;5046004;28;19913;-64
2021/03/10 05:24:45;;;;;;;;;;;2.70;99.90;;;;;;5059873;28;19919;-64
2021/03/10 05:27:11;;;;;;;;;;;2.60;99.90;;;;;;5052239;28;19919;-64
2021/03/10 05:29:36;;;;;;;;;;;2.70;99.90;;;;;;5047131;28;19916;-65
2021/03/10 05:32:02;;;;;;;;;;;2.70;99.90;;;;;;5063418;28;19909;-62
2021/03/10 05:34:27;;;;;;;;;;;2.60;99.90;;;;;;5067049;28;20526;-62
2021/03/10 05:36:53;;;;;;;;;;;2.80;99.90;;;;;;5045104;28;19916;-62
2021/03/10 05:39:19;;;;;;;;;;;2.70;99.90;;;;;;5046112;28;19916;-63
2021/03/10 05:41:45;;;;;;;;;;;2.70;99.90;;;;;;5050001;28;19959;-62
2021/03/10 05:44:10;;;;;;;;;;;2.60;99.90;;;;;;5063886;28;19967;-62
2021/03/10 05:46:36;;;;;;;;;;;2.80;99.90;;;;;;5048862;28;19942;-62
2021/03/10 05:49:02;;;;;;;;;;;2.90;99.90;;;;;;5044352;28;19913;-62
2021/03/10 05:51:27;;;;;;;;;;;2.80;99.90;;;;;;5061706;28;19918;-62
2021/03/10 05:53:53;;;;;;;;;;;2.70;99.90;;;;;;5044650;28;19916;-61
2021/03/10 05:56:21;;;;;;;;;;;2.80;99.90;;;;;;5046584;28;19944;-63
2021/03/10 05:59:00;;;;;;;;;;;2.90;99.90;;;;;;5052376;28;19917;-63
2021/03/10 06:01:25;;;;;;;;;;;2.60;99.90;;;;;;5060228;28;19912;-64
2021/03/10 06:03:59;;;;;;;;;;;2.80;99.90;;;;;;5060304;28;19919;-63
2021/03/10 06:06:25;;;;;;;;;;;2.60;99.90;;;;;;5067691;28;19919;-63
2021/03/10 06:08:50;;;;;;;;;;;2.70;99.90;;;;;;5058272;28;19913;-63
2021/03/10 06:11:26;;;;;;;;;;;2.70;99.90;;;;;;5050227;28;19913;-65
2021/03/10 06:13:52;;;;;;;;;;;2.70;99.90;;;;;;5044097;28;20015;-65
2021/03/10 06:16:24;;;;;;;;;;;2.70;99.90;;;;;;5056719;28;19915;-63
2021/03/10 06:19:03;;;;;;;;;;;2.70;99.90;;;;;;5051191;28;19985;-64
2021/03/10 06:21:29;;;;;;;;;;;2.80;99.90;;;;;;5056536;28;19943;-64
2021/03/10 06:23:54;;;;;;;;;;;2.70;99.90;;;;;;5051811;28;19959;-64
2021/03/10 06:26:21;;;;;;;;;;;3.00;99.90;;;;;;5047414;28;19958;-65
2021/03/10 06:28:47;;;;;;;;;;;2.60;99.90;;;;;;5062958;28;20007;-64
2021/03/10 06:31:16;;;;;;;;;;;2.60;99.90;;;;;;5066087;28;20403;-64
2021/03/10 06:33:41;;;;;;;;;;;2.70;99.90;;;;;;5060493;28;20114;-64
2021/03/10 06:36:07;;;;;;;;;;;3.10;99.90;;;;;;5047667;28;20437;-63
2021/03/10 06:38:32;;;;;;;;;;;2.90;99.90;;;;;;5049377;28;19912;-64
2021/03/10 06:40:58;;;;;;;;;;;3.00;99.90;;;;;;5058269;28;19912;-64
2021/03/10 06:43:34;;;;;;;;;;;2.80;99.90;;;;;;5067324;28;20387;-64
2021/03/10 06:46:16;;;;;;;;;;;2.70;99.90;;;;;;5057704;28;19977;-64
2021/03/10 06:49:01;;;;;;;;;;;2.80;99.90;;;;;;5060507;28;19916;-64
2021/03/10 06:51:27;;;;;;;;;;;3.00;99.90;;;;;;5048751;28;19913;-64
2021/03/10 06:53:53;;;;;;;;;;;2.90;99.90;;;;;;5057364;28;19974;-64
2021/03/10 06:56:23;;;;;;;;;;;3.00;99.90;;;;;;5060775;28;20412;-64
2021/03/10 06:58:53;;;;;;;;;;;2.90;99.90;;;;;;5048631;28;19995;-64
2021/03/10 07:01:18;;;;;;;;;;;3.00;99.90;;;;;;5054423;28;20285;-64
2021/03/10 07:03:46;;;;;;;;;;;3.10;99.90;;;;;;5064725;28;20314;-64
2021/03/10 07:06:11;;;;;;;;;;;3.20;99.90;;;;;;5060307;28;20383;-64
2021/03/10 07:08:38;;;;;;;;;;;3.30;99.90;;;;;;5058217;28;20012;-63
2021/03/10 07:11:03;;;;;;;;;;;3.10;99.90;;;;;;5048035;28;20295;-64
2021/03/10 07:13:29;;;;;;;;;;;3.20;99.90;;;;;;5055166;28;19918;-64
2021/03/10 07:15:54;;;;;;;;;;;3.20;99.90;;;;;;5066997;28;19912;-63
2021/03/10 07:18:22;;;;;;;;;;;3.20;99.90;;;;;;5045828;28;19939;-64
2021/03/10 07:20:47;;;;;;;;;;;3.30;99.90;;;;;;5047061;28;19916;-64
2021/03/10 07:23:15;;;;;;;;;;;3.00;99.90;;;;;;5049761;28;20008;-63
2021/03/10 07:25:42;;;;;;;;;;;3.30;99.90;;;;;;5055960;28;19908;-64
2021/03/10 07:28:16;;;;;;;;;;;3.60;99.90;;;;;;5065090;28;19912;-63
2021/03/10 07:30:45;;;;;;;;;;;3.10;99.90;;;;;;5063418;28;19963;-63
2021/03/10 07:33:12;;;;;;;;;;;3.10;99.90;;;;;;5062478;28;19916;-63
2021/03/10 07:35:47;;;;;;;;;;;3.40;99.90;;;;;;5049620;28;19913;-64
2021/03/10 07:38:12;;;;;;;;;;;3.20;99.90;;;;;;5062206;28;19913;-64
2021/03/10 07:40:38;;;;;;;;;;;3.30;99.90;;;;;;5063427;28;19941;-64
2021/03/10 07:43:03;;;;;;;;;;;3.30;99.90;;;;;;5050146;28;19913;-63
2021/03/10 07:45:40;;;;;;;;;;;3.60;99.90;;;;;;5058492;28;19951;-64
2021/03/10 07:48:06;;;;;;;;;;;3.60;99.90;;;;;;5048660;28;19966;-64
2021/03/10 07:50:40;;;;;;;;;;;3.20;99.90;;;;;;5045237;28;19920;-64
2021/03/10 07:53:05;;;;;;;;;;;3.30;99.90;;;;;;5059969;28;19913;-64
2021/03/10 07:55:40;;;;;;;;;;;3.50;99.90;;;;;;5050312;28;19962;-64
2021/03/10 07:58:05;;;;;;;;;;;4.10;99.90;;;;;;5057341;28;19920;-64
2021/03/10 08:00:37;;;;;;;;;;;3.60;99.90;;;;;;5048764;28;20475;-64
2021/03/10 08:03:03;;;;;;;;;;;3.50;99.90;;;;;;5047171;28;19959;-64
2021/03/10 08:05:29;;;;;;;;;;;3.40;99.90;;;;;;5056741;28;20063;-64
2021/03/10 08:08:06;;;;;;;;;;;3.60;99.90;;;;;;5050156;28;19978;-64
2021/03/10 08:10:32;;;;;;;;;;;3.50;99.90;;;;;;5061074;28;20376;-64
2021/03/10 08:12:57;;;;;;;;;;;3.30;99.90;;;;;;5061116;28;19917;-64
2021/03/10 08:15:23;;;;;;;;;;;3.60;99.90;;;;;;5050991;28;19913;-64
2021/03/10 08:17:49;;;;;;;;;;;3.60;99.90;;;;;;5056854;28;19913;-63
2021/03/10 08:20:15;;;;;;;;;;;4.00;99.90;;;;;;5049775;28;19917;-64
2021/03/10 08:22:41;;;;;;;;;;;3.60;99.90;;;;;;5044851;28;19912;-64
2021/03/10 08:25:12;;;;;;;;;;;3.80;99.90;;;;;;5060619;28;19966;-63
2021/03/10 08:27:38;;;;;;;;;;;3.60;99.90;;;;;;5063543;28;19912;-64
2021/03/10 08:30:12;;;;;;;;;;;4.00;99.90;;;;;;5056751;28;19940;-63
2021/03/10 08:32:38;;;;;;;;;;;3.70;99.90;;;;;;5044531;28;21211;-65
2021/03/10 08:35:06;;;;;;;;;;;3.50;99.90;;;;;;5049085;28;19916;-64
2021/03/10 08:37:32;;;;;;;;;;;3.60;99.90;;;;;;5042890;28;19918;-63
2021/03/10 08:39:58;;;;;;;;;;;3.90;99.90;;;;;;5042606;28;20434;-63
2021/03/10 08:42:24;;;;;;;;;;;3.80;99.90;;;;;;5054325;28;19917;-63
2021/03/10 08:44:50;;;;;;;;;;;3.80;99.90;;;;;;5061039;28;19966;-64
2021/03/10 08:47:20;;;;;;;;;;;3.70;99.90;;;;;;5066132;28;20034;-64
2021/03/10 08:49:52;;;;;;;;;;;3.90;99.90;;;;;;5060161;28;20409;-63
2021/03/10 08:52:18;;;;;;;;;;;3.90;99.90;;;;;;5055298;28;19909;-63
2021/03/10 08:54:44;;;;;;;;;;;4.00;99.90;;;;;;5042851;28;19916;-64
2021/03/10 08:57:09;;;;;;;;;;;4.00;99.90;;;;;;5061870;28;19908;-63
2021/03/10 08:59:35;;;;;;;;;;;4.20;99.90;;;;;;5050742;28;21511;-64
2021/03/10 09:02:01;;;;;;;;;;;4.10;99.90;;;;;;5056215;28;19913;-63
2021/03/10 09:04:27;;;;;;;;;;;4.30;99.90;;;;;;5046704;28;19913;-64
2021/03/10 09:06:57;;;;;;;;;;;4.40;99.90;;;;;;5023729;28;20284;-64
2021/03/10 09:09:22;;;;;;;;;;;4.40;99.90;;;;;;5055238;28;20389;-64
2021/03/10 09:11:51;;;;;;;;;;;4.30;99.90;;;;;;5046590;28;19913;-63
2021/03/10 09:14:16;;;;;;;;;;;5.10;99.90;;;;;;5045272;28;19912;-64
2021/03/10 09:16:49;;;;;;;;;;;5.10;99.90;;;;;;5045352;28;19916;-64
2021/03/10 09:19:27;;;;;;;;;;;5.00;99.90;;;;;;5061190;28;19995;-64
2021/03/10 09:22:03;;;;;;;;;;;5.10;99.90;;;;;;5056973;28;20437;-63
2021/03/10 09:24:29;;;;;;;;;;;4.90;99.90;;;;;;5050910;28;19951;-64
2021/03/10 09:26:55;;;;;;;;;;;5.30;99.90;;;;;;5047961;28;19909;-64
2021/03/10 09:29:20;;;;;;;;;;;5.20;99.90;;;;;;5064479;28;19919;-64
2021/03/10 09:31:55;;;;;;;;;;;5.20;99.90;;;;;;5050017;28;19948;-63
2021/03/10 09:34:22;;;;;;;;;;;5.10;99.90;;;;;;5044495;28;20150;-63
2021/03/10 09:36:48;;;;;;;;;;;5.30;99.90;;;;;;5048069;28;20014;-63
2021/03/10 09:39:14;;;;;;;;;;;5.70;99.90;;;;;;5045427;28;19966;-64
2021/03/10 09:41:45;;;;;;;;;;;5.70;99.90;;;;;;5062601;28;19946;-64
2021/03/10 09:44:11;;;;;;;;;;;5.80;99.90;;;;;;5050198;28;20257;-64
2021/03/10 09:46:41;;;;;;;;;;;5.60;99.90;;;;;;5063423;28;19916;-63
2021/03/10 09:49:06;;;;;;;;;;;5.50;99.90;;;;;;5054268;28;19908;-64
2021/03/10 09:51:32;;;;;;;;;;;5.40;99.90;;;;;;5043804;28;19913;-65
2021/03/10 09:53:58;;;;;;;;;;;5.30;99.90;;;;;;5061997;28;20474;-64
2021/03/10 09:56:24;;;;;;;;;;;5.80;99.90;;;;;;5050575;28;19917;-64
2021/03/10 09:58:51;;;;;;;;;;;6.30;99.90;;;;;;5062503;28;19923;-65
2021/03/10 10:01:17;;;;;;;;;;;6.80;99.90;;;;;;5067512;28;19923;-65
2021/03/10 10:03:42;;;;;;;;;;;6.50;99.90;;;;;;5050857;28;19912;-65
2021/03/10 10:06:08;;;;;;;;;;;7.00;99.90;;;;;;5065208;28;19919;-65
2021/03/10 10:08:38;;;;;;;;;;;6.70;99.90;;;;;;5061149;28;19916;-63
2021/03/10 10:11:07;;;;;;;;;;;7.10;99.90;;;;;;5042589;28;19920;-64
2021/03/10 10:13:33;;;;;;;;;;;7.30;99.90;;;;;;5050840;28;19992;-65
2021/03/10 10:15:58;;;;;;;;;;;7.00;99.90;;;;;;5050074;28;20015;-63
2021/03/10 10:18:24;;;;;;;;;;;7.60;99.90;;;;;;5048017;28;19923;-64
2021/03/10 10:20:49;;;;;;;;;;;7.30;99.90;;;;;;5049705;28;19970;-64
2021/03/10 10:23:15;;;;;;;;;;;7.60;99.90;;;;;;5057208;28;19912;-64
2021/03/10 10:25:43;;;;;;;;;;;7.60;99.90;;;;;;5065673;28;19958;-64
2021/03/10 10:28:08;;;;;;;;;;;7.40;99.90;;;;;;5051269;28;19912;-64
2021/03/10 10:30:34;;;;;;;;;;;7.20;99.90;;;;;;5060352;28;19912;-63
2021/03/10 10:32:59;;;;;;;;;;;7.20;99.90;;;;;;5043873;28;20638;-64
2021/03/10 10:35:25;;;;;;;;;;;6.80;99.90;;;;;;5043385;28;19935;-64
2021/03/10 10:37:50;;;;;;;;;;;7.20;99.90;;;;;;5043771;28;19916;-64
2021/03/10 10:40:18;;;;;;;;;;;7.00;99.90;;;;;;5045865;28;20273;-63
2021/03/10 10:42:47;;;;;;;;;;;6.90;99.90;;;;;;5060736;28;19920;-62
2021/03/10 10:45:13;;;;;;;;;;;6.90;99.90;;;;;;5044659;28;19947;-64
2021/03/10 10:47:39;;;;;;;;;;;6.90;99.90;;;;;;5046390;28;19935;-64
2021/03/10 10:50:06;;;;;;;;;;;7.10;99.90;;;;;;5064258;28;20365;-64
2021/03/10 10:52:35;;;;;;;;;;;7.00;99.90;;;;;;5048988;28;20281;-65
2021/03/10 10:55:00;;;;;;;;;;;7.00;99.90;;;;;;5061824;28;19909;-63
2021/03/10 10:57:26;;;;;;;;;;;7.40;99.90;;;;;;5044025;28;21900;-64
2021/03/10 10:59:52;;;;;;;;;;;7.20;99.90;;;;;;5041633;28;19916;-63
2021/03/10 11:02:17;;;;;;;;;;;7.40;99.90;;;;;;5064289;28;19984;-65
2021/03/10 11:04:43;;;;;;;;;;;7.30;99.90;;;;;;5047766;28;19912;-63
2021/03/10 11:07:08;;;;;;;;;;;7.30;99.90;;;;;;5058551;28;19909;-65
2021/03/10 11:09:36;;;;;;;;;;;7.60;99.90;;;;;;5060551;28;19924;-66
2021/03/10 11:12:01;;;;;;;;;;;7.80;99.90;;;;;;5046715;28;20645;-64
2021/03/10 11:14:27;;;;;;;;;;;7.70;99.90;;;;;;5047682;28;19912;-64
2021/03/10 11:16:56;;;;;;;;;;;7.70;99.90;;;;;;5045615;28;20418;-63
2021/03/10 11:19:22;;;;;;;;;;;8.00;99.90;;;;;;5039840;28;20434;-65
2021/03/10 11:21:47;;;;;;;;;;;8.30;99.90;;;;;;5043406;28;19920;-65
2021/03/10 11:24:13;;;;;;;;;;;8.60;99.90;;;;;;5039372;28;19912;-63
2021/03/10 11:26:39;;;;;;;;;;;8.40;99.90;;;;;;5044562;28;19908;-65
2021/03/10 11:29:04;;;;;;;;;;;8.10;99.90;;;;;;5048342;28;19993;-65
2021/03/10 11:31:30;;;;;;;;;;;8.20;99.90;;;;;;5044500;28;19913;-63
2021/03/10 11:33:55;;;;;;;;;;;8.20;99.90;;;;;;5042717;28;19923;-64
2021/03/10 11:36:20;;;;;;;;;;;8.30;99.90;;;;;;5042171;28;19958;-63
2021/03/10 11:38:46;;;;;;;;;;;8.00;99.90;;;;;;5061145;28;19936;-63
2021/03/10 11:41:11;;;;;;;;;;;7.50;99.90;;;;;;5051646;28;19917;-63
2021/03/10 11:43:37;;;;;;;;;;;7.70;99.90;;;;;;5041859;28;19919;-63
2021/03/10 11:46:02;;;;;;;;;;;8.00;99.90;;;;;;5065558;28;19924;-62
2021/03/10 11:48:28;;;;;;;;;;;8.30;99.90;;;;;;5051710;28;19912;-63
2021/03/10 11:50:53;;;;;;;;;;;8.40;99.90;;;;;;5057791;28;19917;-63
2021/03/10 11:53:19;;;;;;;;;;;8.50;99.90;;;;;;5040879;28;19913;-63
2021/03/10 11:55:45;;;;;;;;;;;8.90;99.90;;;;;;5041265;28;19913;-62
2021/03/10 11:58:10;;;;;;;;;;;9.00;99.90;;;;;;5065329;28;19917;-63
2021/03/10 12:00:39;;;;;;;;;;;9.00;99.90;;;;;;5058572;28;19916;-63
2021/03/10 12:03:04;;;;;;;;;;;8.80;99.90;;;;;;5044500;28;19952;-63
2021/03/10 12:05:30;;;;;;;;;;;8.90;99.90;;;;;;5044472;28;19958;-63
2021/03/10 12:07:55;;;;;;;;;;;9.50;99.90;;;;;;5052559;28;19917;-62
2021/03/10 12:10:21;;;;;;;;;;;9.90;99.90;;;;;;5046608;28;19921;-63
2021/03/10 12:12:47;;;;;;;;;;;10.00;99.90;;;;;;5046180;28;19963;-64
2021/03/10 12:15:13;;;;;;;;;;;10.20;99.90;;;;;;5048178;28;19912;-63
2021/03/10 12:17:38;;;;;;;;;;;10.20;99.90;;;;;;5065998;28;19916;-64
2021/03/10 12:20:04;;;;;;;;;;;10.70;99.90;;;;;;5054099;28;20419;-63
2021/03/10 12:22:30;;;;;;;;;;;10.00;99.90;;;;;;5047973;28;19909;-65
2021/03/10 12:24:56;;;;;;;;;;;10.90;99.90;;;;;;5063518;28;20362;-64
2021/03/10 12:27:27;;;;;;;;;;;10.90;99.60;;;;;;5062251;28;19920;-63
2021/03/10 12:29:57;;;;;;;;;;;11.50;97.40;;;;;;5055903;28;19909;-63
2021/03/10 12:32:23;;;;;;;;;;;11.90;98.20;;;;;;5060739;28;19973;-64
2021/03/10 12:34:49;;;;;;;;;;;12.60;98.30;;;;;;5067937;28;20352;-63
2021/03/10 12:37:14;;;;;;;;;;;12.30;97.70;;;;;;5048799;28;19912;-64
2021/03/10 12:39:40;;;;;;;;;;;11.90;97.00;;;;;;5063849;28;20602;-63
2021/03/10 12:42:07;;;;;;;;;;;11.40;97.00;;;;;;5054995;28;20346;-63
2021/03/10 12:44:32;;;;;;;;;;;10.70;97.60;;;;;;5046258;28;19908;-65
2021/03/10 12:46:58;;;;;;;;;;;10.20;97.60;;;;;;5067403;28;20283;-63
2021/03/10 12:49:23;;;;;;;;;;;10.50;98.20;;;;;;5065268;28;20312;-64
2021/03/10 12:51:48;;;;;;;;;;;11.70;97.40;;;;;;5061982;28;20480;-64
2021/03/10 12:54:14;;;;;;;;;;;11.40;96.40;;;;;;5054717;28;19916;-64
2021/03/10 12:56:40;;;;;;;;;;;11.00;96.40;;;;;;5048376;28;19912;-63
2021/03/10 12:59:05;;;;;;;;;;;10.80;96.10;;;;;;5067353;28;19913;-65
2021/03/10 13:01:30;;;;;;;;;;;10.50;96.70;;;;;;5052029;28;20638;-65
2021/03/10 13:03:56;;;;;;;;;;;10.20;96.10;;;;;;5066120;28;19920;-64
2021/03/10 13:06:22;;;;;;;;;;;9.90;95.40;;;;;;5051736;28;19913;-63
2021/03/10 13:08:47;;;;;;;;;;;9.60;95.30;;;;;;5041303;28;19955;-64
2021/03/10 13:11:13;;;;;;;;;;;9.50;95.90;;;;;;5052502;28;19950;-63
2021/03/10 13:13:39;;;;;;;;;;;9.20;95.60;;;;;;5049990;28;19969;-63
2021/03/10 13:16:04;;;;;;;;;;;9.70;96.80;;;;;;5044661;28;20042;-63
2021/03/10 13:18:30;;;;;;;;;;;9.30;96.40;;;;;;5048185;28;19915;-62
2021/03/10 13:20:55;;;;;;;;;;;9.70;96.60;;;;;;5045413;28;19931;-66
2021/03/10 13:23:21;;;;;;;;;;;9.50;97.00;;;;;;5067516;28;19928;-66
2021/03/10 13:25:46;;;;;;;;;;;9.80;97.30;;;;;;5048670;28;20325;-64
2021/03/10 13:28:12;;;;;;;;;;;9.50;97.00;;;;;;5063922;28;19916;-67
2021/03/10 13:30:37;;;;;;;;;;;9.30;97.00;;;;;;5066573;28;20336;-65
2021/03/10 13:33:03;;;;;;;;;;;9.20;97.10;;;;;;5046131;28;19974;-65
2021/03/10 13:35:28;;;;;;;;;;;9.20;96.70;;;;;;5063461;28;19920;-64
2021/03/10 13:37:56;;;;;;;;;;;9.30;97.00;;;;;;5045558;28;19917;-65
2021/03/10 13:40:22;;;;;;;;;;;9.50;97.40;;;;;;5061950;28;19912;-65
2021/03/10 13:42:47;;;;;;;;;;;9.40;97.20;;;;;;5047137;28;19928;-65
2021/03/10 13:45:13;;;;;;;;;;;10.00;97.80;;;;;;5060678;28;20613;-65
2021/03/10 13:47:39;;;;;;;;;;;9.60;96.80;;;;;;5064229;28;19913;-65
2021/03/10 13:50:04;;;;;;;;;;;9.90;97.40;;;;;;5048386;28;19917;-64
2021/03/10 13:52:30;;;;;;;;;;;9.70;97.10;;;;;;5062006;28;19912;-64
2021/03/10 13:54:55;;;;;;;;;;;9.90;97.60;;;;;;5049534;28;19951;-65
2021/03/10 13:57:21;;;;;;;;;;;9.60;97.60;;;;;;5047992;28;20389;-64
2021/03/10 13:59:46;;;;;;;;;;;9.80;97.80;;;;;;5062477;28;19917;-63
2021/03/10 14:02:12;;;;;;;;;;;9.00;97.90;;;;;;5062529;28;19913;-65
2021/03/10 14:04:38;;;;;;;;;;;9.20;98.40;;;;;;5048553;28;20623;-65
2021/03/10 14:07:03;;;;;;;;;;;9.30;98.80;;;;;;5051027;28;19981;-65
2021/03/10 14:09:29;;;;;;;;;;;8.80;98.50;;;;;;5047362;28;20352;-66
2021/03/10 14:11:54;;;;;;;;;;;9.30;99.00;;;;;;5060700;28;19923;-64
2021/03/10 14:14:20;;;;;;;;;;;9.10;98.70;;;;;;5059272;28;20003;-65
2021/03/10 14:16:45;;;;;;;;;;;8.70;98.10;;;;;;5060499;28;19919;-65
2021/03/10 14:19:10;;;;;;;;;;;9.20;98.30;;;;;;5051179;28;19919;-66
2021/03/10 14:21:36;;;;;;;;;;;8.80;98.20;;;;;;5042977;28;20344;-64
2021/03/10 14:24:01;;;;;;;;;;;8.50;98.00;;;;;;5043125;28;19917;-63
2021/03/10 14:26:27;;;;;;;;;;;8.50;97.90;;;;;;5061788;28;20026;-64